sensor_id;sensor_type;location;lat;lon;timestamp;pressure;altitude;pressure_sealevel;temperature;humidity
71903;BME280;59778;50.310;18.780;2023-04-30T00:02:46;98676.19;;;10.68;100.00
71903;BME280;59778;50.310;18.780;2023-04-30T00:18:07;98673.19;;;10.63;100.00
71903;BME280;59778;50.310;18.780;2023-04-30T00:33:28;98684.19;;;10.49;100.00
71903;BME280;59778;50.310;18.780;2023-04-30T00:48:50;98684.34;;;10.47;100.00
71903;BME280;59778;50.310;18.780;2023-04-30T01:04:11;98695.31;;;10.32;100.00
71903;BME280;59778;50.310;18.780;2023-04-30T01:19:42;98707.81;;;10.27;100.00
71903;BME280;59778;50.310;18.780;2023-04-30T01:35:04;98702.81;;;10.30;100.00
71903;BME280;59778;50.310;18.780;2023-04-30T01:50:47;98721.56;;;10.25;100.00
71903;BME280;59778;50.310;18.780;2023-04-30T02:06:09;98728.44;;;10.07;100.00
71903;BME280;59778;50.310;18.780;2023-04-30T02:21:31;98744.44;;;10.02;100.00
71903;BME280;59778;50.310;18.780;2023-04-30T02:36:52;98775.69;;;9.62;100.00
71903;BME280;59778;50.310;18.780;2023-04-30T02:52:13;98801.97;;;8.42;100.00
71903;BME280;59778;50.310;18.780;2023-04-30T03:07:35;98812.03;;;8.26;100.00
71903;BME280;59778;50.310;18.780;2023-04-30T03:22:56;98845.22;;;8.20;100.00
71903;BME280;59778;50.310;18.780;2023-04-30T03:38:17;98856.19;;;8.18;100.00
71903;BME280;59778;50.310;18.780;2023-04-30T03:53:39;98876.66;;;8.29;100.00
71903;BME280;59778;50.310;18.780;2023-04-30T04:09:00;98892.28;;;8.41;100.00
71903;BME280;59778;50.310;18.780;2023-04-30T04:24:26;98912.63;;;8.37;100.00
71903;BME280;59778;50.310;18.780;2023-04-30T04:39:47;98924.31;;;8.30;100.00
71903;BME280;59778;50.310;18.780;2023-04-30T04:55:10;98950.44;;;8.45;100.00
71903;BME280;59778;50.310;18.780;2023-04-30T05:10:32;98966.53;;;8.47;100.00
71903;BME280;59778;50.310;18.780;2023-04-30T05:25:55;98993.81;;;8.37;100.00
71903;BME280;59778;50.310;18.780;2023-04-30T05:41:17;99003.22;;;8.41;100.00
71903;BME280;59778;50.310;18.780;2023-04-30T05:56:38;99027.28;;;8.75;99.67
71903;BME280;59778;50.310;18.780;2023-04-30T06:11:59;99034.50;;;9.36;92.81
71903;BME280;59778;50.310;18.780;2023-04-30T06:27:22;99056.53;;;9.79;88.19
71903;BME280;59778;50.310;18.780;2023-04-30T06:42:43;99050.66;;;9.90;87.56
71903;BME280;59778;50.310;18.780;2023-04-30T06:58:06;99065.59;;;10.67;81.88
71903;BME280;59778;50.310;18.780;2023-04-30T07:13:28;99077.38;;;11.40;78.25
71903;BME280;59778;50.310;18.780;2023-04-30T07:28:49;99061.56;;;11.28;74.23
71903;BME280;59778;50.310;18.780;2023-04-30T07:44:10;99082.25;;;12.36;70.65
71903;BME280;59778;50.310;18.780;2023-04-30T07:59:32;99089.34;;;12.37;66.34
71903;BME280;59778;50.310;18.780;2023-04-30T08:15:01;99103.34;;;12.27;67.51
71903;BME280;59778;50.310;18.780;2023-04-30T08:30:22;99109.78;;;11.98;65.44
71903;BME280;59778;50.310;18.780;2023-04-30T08:45:44;99104.28;;;12.75;61.14
71903;BME280;59778;50.310;18.780;2023-04-30T09:01:06;99112.66;;;13.68;57.00
71903;BME280;59778;50.310;18.780;2023-04-30T09:16:43;99120.03;;;13.14;58.21
71903;BME280;59778;50.310;18.780;2023-04-30T09:32:07;99120.50;;;13.24;54.50
71903;BME280;59778;50.310;18.780;2023-04-30T09:47:31;99129.72;;;13.97;53.49
71903;BME280;59778;50.310;18.780;2023-04-30T10:02:53;99112.94;;;14.13;51.03
71903;BME280;59778;50.310;18.780;2023-04-30T10:18:36;99111.66;;;14.15;50.51
71903;BME280;59778;50.310;18.780;2023-04-30T10:49:37;99088.97;;;14.54;50.10
71903;BME280;59778;50.310;18.780;2023-04-30T11:20:29;99085.06;;;15.08;43.82
71903;BME280;59778;50.310;18.780;2023-04-30T11:35:51;99088.94;;;16.08;43.65
71903;BME280;59778;50.310;18.780;2023-04-30T11:51:20;99079.03;;;15.75;45.27
71903;BME280;59778;50.310;18.780;2023-04-30T12:06:42;99101.91;;;15.56;42.69
71903;BME280;59778;50.310;18.780;2023-04-30T12:22:04;99092.28;;;16.34;42.59
71903;BME280;59778;50.310;18.780;2023-04-30T12:37:25;99084.69;;;16.79;39.86
71903;BME280;59778;50.310;18.780;2023-04-30T12:52:47;99066.28;;;16.86;39.20
71903;BME280;59778;50.310;18.780;2023-04-30T13:08:09;99053.75;;;17.57;38.64
71903;BME280;59778;50.310;18.780;2023-04-30T13:23:30;99050.44;;;17.66;38.45
71903;BME280;59778;50.310;18.780;2023-04-30T13:38:52;99037.19;;;18.16;37.51
71903;BME280;59778;50.310;18.780;2023-04-30T13:54:13;99048.59;;;17.78;36.05
71903;BME280;59778;50.310;18.780;2023-04-30T14:09:34;99047.19;;;17.87;36.45
71903;BME280;59778;50.310;18.780;2023-04-30T14:24:56;99034.31;;;18.00;35.29
71903;BME280;59778;50.310;18.780;2023-04-30T14:40:17;99047.72;;;18.31;35.61
71903;BME280;59778;50.310;18.780;2023-04-30T14:55:39;99043.84;;;17.85;33.82
71903;BME280;59778;50.310;18.780;2023-04-30T15:11:00;99045.19;;;18.06;32.30
71903;BME280;59778;50.310;18.780;2023-04-30T15:26:23;99046.38;;;17.57;31.28
71903;BME280;59778;50.310;18.780;2023-04-30T15:41:45;99046.56;;;17.26;32.35
71903;BME280;59778;50.310;18.780;2023-04-30T15:57:07;99047.13;;;16.98;34.43
71903;BME280;59778;50.310;18.780;2023-04-30T16:12:28;99052.13;;;15.72;35.50
71903;BME280;59778;50.310;18.780;2023-04-30T16:27:51;99050.81;;;14.86;36.41
71903;BME280;59778;50.310;18.780;2023-04-30T16:43:12;99043.94;;;14.70;37.37
71903;BME280;59778;50.310;18.780;2023-04-30T16:58:34;99047.34;;;14.26;36.78
71903;BME280;59778;50.310;18.780;2023-04-30T17:13:58;99061.66;;;13.89;38.72
71903;BME280;59778;50.310;18.780;2023-04-30T17:29:20;99088.72;;;13.57;41.53
71903;BME280;59778;50.310;18.780;2023-04-30T17:44:42;99101.63;;;13.23;42.34
71903;BME280;59778;50.310;18.780;2023-04-30T18:00:04;99120.00;;;12.73;42.21
71903;BME280;59778;50.310;18.780;2023-04-30T18:15:27;99125.81;;;12.36;43.89
71903;BME280;59778;50.310;18.780;2023-04-30T18:30:49;99127.22;;;12.04;44.92
71903;BME280;59778;50.310;18.780;2023-04-30T18:46:10;99148.75;;;11.63;46.76
71903;BME280;59778;50.310;18.780;2023-04-30T19:01:33;99156.31;;;11.46;48.71
71903;BME280;59778;50.310;18.780;2023-04-30T19:16:54;99169.41;;;11.21;51.35
71903;BME280;59778;50.310;18.780;2023-04-30T19:32:16;99180.63;;;10.60;54.06
71903;BME280;59778;50.310;18.780;2023-04-30T19:47:37;99187.00;;;10.15;58.65
71903;BME280;59778;50.310;18.780;2023-04-30T20:02:58;99185.94;;;9.70;60.64
71903;BME280;59778;50.310;18.780;2023-04-30T20:18:24;99189.31;;;9.41;60.47
71903;BME280;59778;50.310;18.780;2023-04-30T20:33:45;99191.22;;;8.94;65.05
71903;BME280;59778;50.310;18.780;2023-04-30T20:49:07;99193.19;;;8.53;66.22
71903;BME280;59778;50.310;18.780;2023-04-30T21:04:31;99205.00;;;7.87;71.24
71903;BME280;59778;50.310;18.780;2023-04-30T21:19:52;99212.38;;;7.45;72.74
71903;BME280;59778;50.310;18.780;2023-04-30T21:35:15;99227.25;;;7.07;75.59
71903;BME280;59778;50.310;18.780;2023-04-30T21:50:36;99233.63;;;6.72;76.31
71903;BME280;59778;50.310;18.780;2023-04-30T22:05:59;99252.41;;;6.56;76.82
71903;BME280;59778;50.310;18.780;2023-04-30T22:21:20;99263.31;;;6.46;78.64
71903;BME280;59778;50.310;18.780;2023-04-30T22:36:42;99262.78;;;6.43;77.12
71903;BME280;59778;50.310;18.780;2023-04-30T22:52:04;99266.50;;;6.06;79.11
71903;BME280;59778;50.310;18.780;2023-04-30T23:07:26;99272.28;;;5.94;79.26
71903;BME280;59778;50.310;18.780;2023-04-30T23:22:48;99274.47;;;5.63;80.03
71903;BME280;59778;50.310;18.780;2023-04-30T23:38:10;99276.75;;;5.58;80.87
71903;BME280;59778;50.310;18.780;2023-04-30T23:53:32;99278.78;;;5.29;81.61
